Time;durP1;ratioP1;P1;durP2;ratioP2;P2;SDS_P1;SDS_P2;PMS_P1;PMS_P2;Temp;Humidity;BMP_temperature;BMP_pressure;BME280_temperature;BME280_humidity;BME280_pressure;Samples;Min_cycle;Max_cycle;Signal;HPM_P1;HPM_P2
2021/06/03 08:28:07;;;;;;;4.22;3.37;;;;;;;24.28;33.40;101538.02;1845033;77;22637;-74
2021/06/03 08:30:34;;;;;;;4.50;2.50;;;;;;;24.27;33.26;101540.47;1818132;78;21004;-73
2021/06/03 08:33:00;;;;;;;7.62;3.02;;;;;;;24.16;32.85;101542.62;1811175;78;21788;-75
2021/06/03 08:35:26;;;;;;;7.30;2.80;;;;;;;23.94;32.35;101542.78;1819107;78;20986;-75
2021/06/03 08:37:55;;;;;;;3.08;2.27;;;;;;;23.90;32.22;101544.30;1816041;78;21026;-75
2021/06/03 08:40:25;;;;;;;7.72;3.60;;;;;;;23.80;31.83;101546.21;1825605;78;21017;-75
2021/06/03 08:42:52;;;;;;;4.22;2.47;;;;;;;23.72;31.65;101549.77;1825711;78;21350;-75
2021/06/03 08:45:19;;;;;;;6.33;3.00;;;;;;;23.92;31.58;101550.37;1825470;78;21570;-74
2021/06/03 08:47:45;;;;;;;4.62;3.12;;;;;;;24.08;31.52;101548.35;1825832;78;21517;-75
2021/06/03 08:50:12;;;;;;;4.40;2.87;;;;;;;24.14;31.15;101545.25;1824849;78;21418;-75
2021/06/03 08:52:38;;;;;;;6.80;2.62;;;;;;;24.19;31.28;101546.23;1825756;78;20995;-74
2021/06/03 08:55:08;;;;;;;4.60;2.40;;;;;;;24.34;31.17;101543.93;1825202;78;20974;-74
2021/06/03 08:57:34;;;;;;;4.53;2.40;;;;;;;24.14;30.81;101542.00;1825088;78;21647;-75
2021/06/03 09:00:01;;;;;;;5.65;2.65;;;;;;;24.22;30.95;101544.41;1825449;78;20975;-75
2021/06/03 09:02:27;;;;;;;7.00;2.95;;;;;;;24.28;30.92;101544.84;1825521;78;21021;-75
2021/06/03 09:04:53;;;;;;;9.00;2.58;;;;;;;24.47;31.01;101544.78;1825651;78;21443;-75
2021/06/03 09:07:34;;;;;;;8.50;2.67;;;;;;;24.53;30.84;101546.56;1825437;78;20879;-75
2021/06/03 09:10:33;;;;;;;5.33;2.72;;;;;;;24.56;30.85;101548.84;1825204;78;21627;-75
2021/06/03 09:13:20;;;;;;;3.87;2.40;;;;;;;24.70;30.82;101548.94;1825843;78;21046;-75
2021/06/03 09:15:50;;;;;;;6.08;2.70;;;;;;;24.65;30.50;101550.99;1825612;78;20998;-74
2021/06/03 09:18:17;;;;;;;5.80;2.40;;;;;;;24.58;30.19;101553.52;1825849;78;21554;-75
2021/06/03 09:20:45;;;;;;;3.72;2.52;;;;;;;24.39;30.09;101554.12;1825486;78;21005;-74
2021/06/03 09:23:32;;;;;;;3.87;2.87;;;;;;;24.27;29.99;101547.81;1825570;78;21803;-75
2021/06/03 09:25:59;;;;;;;5.10;2.35;;;;;;;24.45;30.10;101542.83;1825535;78;20982;-74
2021/06/03 09:28:29;;;;;;;4.22;2.40;;;;;;;24.65;30.03;101548.27;1825260;78;21045;-74
2021/06/03 09:31:02;;;;;;;4.15;2.60;;;;;;;24.69;30.06;101539.91;1825443;78;21132;-74
2021/06/03 09:33:43;;;;;;;6.78;2.62;;;;;;;24.87;30.11;101539.55;1825300;78;21423;-74
2021/06/03 09:36:12;;;;;;;3.30;2.20;;;;;;;24.90;30.12;101534.44;1825676;78;21716;-74
2021/06/03 09:38:53;;;;;;;7.37;2.17;;;;;;;25.00;29.91;101532.48;1824906;78;21427;-75
2021/06/03 09:41:19;;;;;;;4.70;2.25;;;;;;;24.89;29.71;101534.14;1824986;78;21026;-75
2021/06/03 09:43:46;;;;;;;4.00;2.33;;;;;;;24.54;29.32;101534.59;1824939;78;21014;-74
2021/06/03 09:46:16;;;;;;;6.90;2.72;;;;;;;23.97;29.05;101532.77;1825102;78;21049;-74
2021/06/03 09:48:46;;;;;;;6.20;2.85;;;;;;;23.47;29.20;101531.34;1825017;78;21421;-74
2021/06/03 09:51:25;;;;;;;5.37;2.65;;;;;;;23.86;29.60;101530.83;1824894;78;21487;-74
2021/06/03 09:54:02;;;;;;;3.33;2.22;;;;;;;24.01;29.49;101525.81;1824644;78;21022;-74
2021/06/03 09:56:36;;;;;;;7.60;2.58;;;;;;;23.80;29.06;101537.20;1823965;78;21030;-74
2021/06/03 09:59:07;;;;;;;3.75;2.20;;;;;;;23.58;28.93;101523.74;1824871;78;20988;-74
2021/06/03 10:02:03;;;;;;;3.87;2.30;;;;;;;23.69;29.12;101517.53;1823322;78;21987;-74
2021/06/03 10:04:36;;;;;;;3.25;2.25;;;;;;;23.94;29.10;101516.89;1821665;78;20998;-74
2021/06/03 10:07:27;;;;;;;7.85;2.58;;;;;;;24.00;29.15;101521.41;1824519;78;21017;-74
2021/06/03 10:10:09;;;;;;;8.53;2.80;;;;;;;24.01;29.14;101520.88;1823709;78;21003;-74
2021/06/03 10:12:48;;;;;;;4.78;2.87;;;;;;;23.93;29.16;101526.12;1825087;78;21511;-74
2021/06/03 10:15:26;;;;;;;4.83;3.02;;;;;;;24.29;29.35;101526.06;1825219;78;21362;-74
2021/06/03 10:18:07;;;;;;;6.95;3.12;;;;;;;24.53;29.36;101524.21;1824963;78;20970;-74
2021/06/03 10:20:48;;;;;;;4.42;2.70;;;;;;;24.58;29.23;101525.72;1824587;78;20986;-74
2021/06/03 10:23:21;;;;;;;6.67;2.47;;;;;;;24.50;29.19;101527.94;1824538;78;20961;-74
2021/06/03 10:25:50;;;;;;;6.90;2.70;;;;;;;24.49;29.20;101523.57;1824827;78;21423;-74
2021/06/03 10:28:19;;;;;;;4.45;2.70;;;;;;;24.36;29.03;101528.68;1827103;78;21418;-74
2021/06/03 10:30:52;;;;;;;7.70;2.70;;;;;;;24.18;29.06;101522.76;1827918;78;21069;-74
2021/06/03 10:33:24;;;;;;;5.53;2.60;;;;;;;24.11;29.07;101524.72;1828008;78;20982;-74
2021/06/03 10:35:53;;;;;;;5.95;2.60;;;;;;;24.20;29.12;101514.36;1828316;78;20958;-74
2021/06/03 10:38:20;;;;;;;3.15;2.33;;;;;;;24.16;29.11;101520.81;1827887;78;21058;-74
2021/06/03 10:40:50;;;;;;;4.25;2.35;;;;;;;24.06;29.01;101519.67;1828035;78;21615;-74
2021/06/03 10:43:16;;;;;;;6.80;2.45;;;;;;;23.94;29.08;101522.34;1828053;78;20986;-74
2021/06/03 10:45:42;;;;;;;6.20;2.58;;;;;;;;;;1827895;78;21005;-74
2021/06/03 10:48:08;;;;;;;3.45;2.67;;;;;;;23.85;29.28;101516.92;1828200;78;20859;-74
2021/06/03 10:50:43;;;;;;;5.72;2.98;;;;;;;23.82;29.26;101521.44;1828009;78;21024;-74
2021/06/03 10:53:12;;;;;;;3.77;2.55;;;;;;;23.51;29.35;101516.18;1828246;78;22101;-74
2021/06/03 10:55:48;;;;;;;3.92;3.10;;;;;;;23.52;29.60;101510.52;1828025;78;21017;-74
2021/06/03 10:58:15;;;;;;;6.60;3.42;;;;;;;23.62;29.61;101522.23;1828065;78;21002;-74
2021/06/03 11:00:45;;;;;;;3.87;2.95;;;;;;;23.35;29.54;101515.72;1827858;78;21510;-74
2021/06/03 11:03:19;;;;;;;5.00;2.87;;;;;;;23.37;29.69;101501.86;1828326;78;20993;-74
2021/06/03 11:05:51;;;;;;;6.10;3.10;;;;;;;23.12;29.78;101500.56;1828419;78;21222;-74
2021/06/03 11:08:40;;;;;;;5.17;2.52;;;;;;;23.29;30.06;101496.74;1827851;78;21093;-74
2021/06/03 11:11:15;;;;;;;5.42;2.58;;;;;;;23.42;29.97;101493.89;1828361;78;21015;-74
2021/06/03 11:13:49;;;;;;;4.05;2.37;;;;;;;23.54;30.09;101496.69;1828218;78;20971;-74
2021/06/03 11:16:20;;;;;;;7.37;3.40;;;;;;;23.64;30.12;101488.80;1828022;78;20994;-74
2021/06/03 11:18:56;;;;;;;3.42;2.80;;;;;;;23.60;30.10;101493.88;1828204;78;21146;-74
2021/06/03 11:21:37;;;;;;;4.20;2.90;;;;;;;23.64;30.19;101496.97;1821241;78;20974;-74
2021/06/03 11:24:16;;;;;;;4.17;2.45;;;;;;;23.69;30.12;101489.77;1828224;78;21467;-74
2021/06/03 11:26:48;;;;;;;5.17;2.70;;;;;;;23.51;29.92;101488.95;1828120;78;20990;-74
2021/06/03 11:29:32;;;;;;;5.00;3.12;;;;;;;23.35;29.90;101485.77;1824941;78;20986;-74
2021/06/03 11:32:07;;;;;;;4.78;2.80;;;;;;;23.30;29.85;101478.80;1824780;78;21293;-74
2021/06/03 11:34:43;;;;;;;11.25;2.42;;;;;;;23.32;29.90;101475.34;1825011;78;21066;-74
2021/06/03 11:37:22;;;;;;;7.83;2.70;;;;;;;23.52;29.94;101477.84;1824796;78;21541;-74
2021/06/03 11:39:54;;;;;;;;;;;;;;;23.65;29.98;101468.66;1827774;78;21029;-74
2021/06/03 11:42:41;;;;;;;7.17;2.92;;;;;;;23.86;29.90;101468.16;1825185;78;20141;-74
2021/06/03 11:45:37;;;;;;;4.00;2.30;;;;;;;23.84;29.70;101473.02;1825173;78;21155;-74
2021/06/03 11:48:09;;;;;;;5.83;2.15;;;;;;;23.67;29.48;101469.27;1824808;78;20963;-74
2021/06/03 11:50:41;;;;;;;8.03;2.85;;;;;;;23.63;29.51;101473.52;1824963;78;21048;-74
2021/06/03 11:53:10;;;;;;;6.40;2.30;;;;;;;23.80;29.56;101471.81;1824669;78;21529;-74
2021/06/03 11:55:52;;;;;;;8.45;2.92;;;;;;;23.74;29.42;101467.29;1824760;78;21010;-74
2021/06/03 11:58:41;;;;;;;4.03;2.50;;;;;;;23.70;29.44;101465.56;1825179;78;21363;-74
2021/06/03 12:01:11;;;;;;;5.33;2.50;;;;;;;23.67;29.28;101466.55;1825146;78;21026;-74
2021/06/03 12:03:40;;;;;;;4.67;2.50;;;;;;;23.60;29.23;101468.53;1795576;78;20999;-74
2021/06/03 12:06:14;;;;;;;3.85;2.40;;;;;;;23.75;29.28;101471.69;1825028;78;21049;-74
2021/06/03 12:08:50;;;;;;;4.55;2.12;;;;;;;23.72;29.09;101466.67;1825008;78;21042;-74
2021/06/03 12:11:27;;;;;;;11.50;2.85;;;;;;;23.63;29.12;101465.34;1824623;78;21147;-74
2021/06/03 12:14:09;;;;;;;5.55;2.10;;;;;;;23.57;29.15;101456.73;1821151;78;20987;-74
2021/06/03 12:16:38;;;;;;;3.50;2.27;;;;;;;23.58;29.22;101457.02;1824409;78;21518;-74
2021/06/03 12:19:10;;;;;;;4.70;2.42;;;;;;;23.63;29.30;101449.00;1824699;78;21022;-74
2021/06/03 12:21:37;;;;;;;4.60;1.92;;;;;;;23.74;29.37;101448.22;1824084;78;21482;-74
2021/06/03 12:24:04;;;;;;;6.15;2.45;;;;;;;23.81;29.37;101447.59;1824480;78;21281;-74
2021/06/03 12:26:30;;;;;;;2.77;2.42;;;;;;;24.03;29.52;101436.45;1824329;78;20990;-74
2021/06/03 12:28:56;;;;;;;5.60;2.47;;;;;;;24.01;29.13;101450.86;1823831;78;21033;-74
2021/06/03 12:31:26;;;;;;;3.25;2.40;;;;;;;23.87;29.16;101444.77;1824266;78;21030;-73
2021/06/03 12:33:53;;;;;;;6.55;2.62;;;;;;;23.99;29.18;101446.71;1823373;78;20982;-74
2021/06/03 12:36:19;;;;;;;6.08;2.60;;;;;;;23.91;29.04;101442.42;1824376;78;21282;-73
2021/06/03 12:38:48;;;;;;;5.20;2.58;;;;;;;24.00;29.15;101436.08;1823740;78;21751;-74
2021/06/03 12:41:26;;;;;;;3.35;2.35;;;;;;;24.01;29.08;101441.84;1824629;78;21026;-74
2021/06/03 12:43:59;;;;;;;4.37;2.52;;;;;;;23.96;29.09;101433.00;1824554;78;20975;-74
2021/06/03 12:46:46;;;;;;;9.38;2.60;;;;;;;23.91;29.02;101430.68;1824496;78;21006;-73
2021/06/03 12:49:21;;;;;;;12.20;3.52;;;;;;;23.85;28.90;101433.81;1824408;78;21242;-74
2021/06/03 12:52:05;;;;;;;4.58;3.22;;;;;;;23.75;28.86;101434.91;1824041;78;21479;-74
2021/06/03 12:54:54;;;;;;;5.62;2.27;;;;;;;23.92;28.95;101423.65;1824349;78;21211;-74
2021/06/03 12:57:21;;;;;;;3.15;2.22;;;;;;;24.08;29.09;101425.69;1795620;79;21074;-74
2021/06/03 12:59:50;;;;;;;3.47;2.37;;;;;;;24.17;29.11;101425.67;1742244;79;21101;-74
2021/06/03 13:02:16;;;;;;;5.53;2.30;;;;;;;24.16;28.98;101421.30;1795808;79;21230;-74
2021/06/03 13:04:50;;;;;;;3.58;2.60;;;;;;;24.07;29.01;101421.30;1795920;79;21534;-74
2021/06/03 13:07:35;;;;;;;3.60;2.42;;;;;;;23.93;28.81;101430.73;1795937;79;21059;-74
2021/06/03 13:10:06;;;;;;;5.42;2.22;;;;;;;23.92;29.00;101424.17;1795883;79;21527;-74
2021/06/03 13:12:33;;;;;;;4.97;2.55;;;;;;;24.03;28.99;101415.20;1795952;79;21007;-74
2021/06/03 13:14:59;;;;;;;2.95;2.40;;;;;;;24.05;29.00;101415.27;1796069;79;21467;-74
2021/06/03 13:17:34;;;;;;;5.87;3.70;;;;;;;23.94;28.93;101413.33;1796380;79;21053;-74
2021/06/03 13:19:59;;;;;;;5.42;2.85;;;;;;;23.85;28.90;101422.91;1796067;79;21054;-74
2021/06/03 13:22:31;;;;;;;7.28;2.45;;;;;;;23.77;28.87;101427.32;1795954;79;21160;-74
2021/06/03 13:24:57;;;;;;;4.80;2.62;;;;;;;23.70;28.88;101427.42;1796189;79;21043;-74
2021/06/03 13:27:26;;;;;;;6.45;2.70;;;;;;;23.72;28.94;101415.75;1795957;79;21107;-74
2021/06/03 13:29:57;;;;;;;5.25;2.17;;;;;;;23.79;29.01;101423.82;1796113;79;21526;-74
2021/06/03 13:32:25;;;;;;;6.78;2.20;;;;;;;23.74;28.83;101407.36;1795204;79;21074;-74
2021/06/03 13:34:51;;;;;;;9.90;2.15;;;;;;;23.76;28.91;101410.67;1796001;79;21037;-74
2021/06/03 13:37:20;;;;;;;13.48;2.87;;;;;;;23.70;28.96;101406.16;1796142;79;21475;-74
2021/06/03 13:39:51;;;;;;;10.65;2.80;;;;;;;23.77;29.10;101415.06;1796555;79;21296;-74
2021/06/03 13:42:28;;;;;;;3.25;2.37;;;;;;;23.86;29.14;101416.37;1796330;79;21101;-74
2021/06/03 13:45:01;;;;;;;5.17;2.52;;;;;;;23.91;29.16;101416.53;1796654;79;21054;-73
2021/06/03 13:47:49;;;;;;;3.15;2.83;;;;;;;23.88;29.18;101412.38;1796410;79;21031;-73
2021/06/03 13:50:32;;;;;;;3.80;2.47;;;;;;;24.00;29.30;101405.58;1796877;79;21526;-73
2021/06/03 13:53:03;;;;;;;3.85;2.17;;;;;;;24.16;29.34;101406.31;1796882;79;22018;-73
2021/06/03 13:55:47;;;;;;;5.37;2.72;;;;;;;24.12;29.29;101405.61;1796799;79;21051;-73
2021/06/03 13:58:20;;;;;;;8.48;2.65;;;;;;;23.98;29.08;101402.80;1796572;79;21074;-73
2021/06/03 14:00:47;;;;;;;7.45;2.60;;;;;;;23.98;29.07;101397.34;1788280;79;21020;-73
2021/06/03 14:03:15;;;;;;;5.90;2.40;;;;;;;23.98;29.04;101402.27;1796883;79;21019;-73
2021/06/03 14:06:00;;;;;;;4.75;2.30;;;;;;;23.91;28.94;101396.09;1796490;79;21337;-73
2021/06/03 14:08:33;;;;;;;2.55;2.27;;;;;;;23.82;28.85;101396.11;1796935;78;21058;-74
2021/06/03 14:11:53;;;;;;;4.92;2.33;;;;;;;23.87;28.95;101407.16;1783507;78;20978;-73
2021/06/03 14:14:06;;;;;;;8.43;2.27;;;;;;;23.76;28.93;101399.77;1758331;80;21025;-73
2021/06/03 14:16:49;;;;;;;4.03;2.08;;;;;;;23.67;28.99;101398.45;1765526;80;21010;-73
2021/06/03 14:19:26;;;;;;;5.22;2.42;;;;;;;23.63;29.00;101394.52;1765426;80;21799;-73
2021/06/03 14:22:01;;;;;;;7.50;2.62;;;;;;;23.72;29.05;101394.48;1765443;80;20954;-73
2021/06/03 14:24:43;;;;;;;3.45;2.45;;;;;;;23.71;28.95;101402.38;1765283;81;21002;-73
2021/06/03 14:27:23;;;;;;;3.83;2.52;;;;;;;23.69;28.96;101400.39;1765180;80;21065;-72
2021/06/03 14:30:13;;;;;;;4.50;2.50;;;;;;;23.65;29.05;101391.02;1765634;81;21498;-73
2021/06/03 14:32:49;;;;;;;;;;;;;;;23.70;29.09;101391.17;1767810;80;21119;-73
2021/06/03 14:35:39;;;;;;;3.33;2.27;;;;;;;23.73;29.09;101383.89;1765414;81;20179;-73
2021/06/03 14:38:08;;;;;;;5.83;3.08;;;;;;;23.77;29.13;101391.91;1765436;80;21006;-73
2021/06/03 14:40:56;;;;;;;4.83;2.55;;;;;;;23.71;29.11;101386.03;1765320;81;21471;-73
2021/06/03 14:43:27;;;;;;;4.15;2.25;;;;;;;23.64;29.15;101394.83;1765623;80;20975;-73
2021/06/03 14:46:04;;;;;;;4.25;2.33;;;;;;;23.69;29.25;101384.05;1765217;81;21316;-73
2021/06/03 14:48:30;;;;;;;4.42;2.50;;;;;;;23.74;29.28;101383.67;1765302;80;21491;-73
2021/06/03 14:50:59;;;;;;;5.62;2.25;;;;;;;23.74;29.31;101385.56;1765393;81;20995;-73
2021/06/03 14:53:28;;;;;;;3.72;2.50;;;;;;;23.83;29.40;101384.16;1765321;81;21526;-73
2021/06/03 14:55:56;;;;;;;5.75;2.20;;;;;;;23.89;29.45;101376.40;1764847;80;21066;-73
2021/06/03 14:58:23;;;;;;;4.25;2.22;;;;;;;23.91;29.49;101372.93;1762818;80;21876;-73
2021/06/03 15:00:58;;;;;;;2.65;2.30;;;;;;;23.93;29.44;101370.78;1763132;81;21129;-73
2021/06/03 15:03:24;;;;;;;4.55;2.72;;;;;;;23.76;29.37;101375.25;1763314;80;21006;-73
2021/06/03 15:05:51;;;;;;;6.55;2.52;;;;;;;23.74;29.40;101378.75;1762953;80;21471;-73
2021/06/03 15:08:17;;;;;;;5.47;2.20;;;;;;;23.70;29.38;101373.47;1763188;80;21018;-73
2021/06/03 15:10:44;;;;;;;36.45;32.58;;;;;;;23.69;29.37;101375.36;1763229;80;21164;-73
2021/06/03 15:13:15;;;;;;;4.95;4.45;;;;;;;23.71;29.40;101372.41;1763091;80;21033;-72
2021/06/03 15:15:41;;;;;;;4.03;2.87;;;;;;;23.74;29.44;101376.03;1763169;81;21529;-73
2021/06/03 15:18:07;;;;;;;14.30;9.28;;;;;;;23.69;29.29;101378.08;1763262;81;21514;-73
2021/06/03 15:20:36;;;;;;;19.48;9.50;;;;;;;23.67;29.25;101379.38;1762984;81;21409;-73
2021/06/03 15:23:03;;;;;;;7.05;3.55;;;;;;;23.65;29.30;101375.52;1763171;80;21083;-72
2021/06/03 15:25:29;;;;;;;6.92;2.42;;;;;;;23.66;29.33;101373.63;1763015;81;21034;-73
2021/06/03 15:27:56;;;;;;;7.03;2.75;;;;;;;23.59;29.27;101369.64;1763054;80;21499;-73
2021/06/03 15:30:26;;;;;;;8.98;2.60;;;;;;;23.55;29.33;101370.33;1763257;81;20971;-73
2021/06/03 15:32:54;;;;;;;3.47;2.40;;;;;;;23.66;29.45;101365.45;1763247;80;20978;-73
2021/06/03 15:35:22;;;;;;;11.87;2.67;;;;;;;23.63;29.43;101366.76;1763082;81;21403;-73
2021/06/03 15:37:48;;;;;;;11.00;4.90;;;;;;;23.55;29.36;101364.88;1763012;81;20994;-73
2021/06/03 15:40:16;;;;;;;5.15;2.45;;;;;;;23.53;29.45;101361.57;1763000;81;21006;-73
2021/06/03 15:42:42;;;;;;;9.45;2.20;;;;;;;23.46;29.37;101362.20;1763303;80;21412;-73
2021/06/03 15:45:09;;;;;;;6.25;3.45;;;;;;;23.53;29.47;101361.57;1763169;80;21447;-73
2021/06/03 15:47:40;;;;;;;22.22;10.45;;;;;;;23.51;29.47;101359.59;1763115;80;21247;-73
2021/06/03 15:50:09;;;;;;;6.90;3.37;;;;;;;23.52;29.51;101362.09;1762749;80;21538;-73
2021/06/03 15:52:36;;;;;;;6.90;3.77;;;;;;;23.53;29.55;101358.84;1763530;80;21039;-73
2021/06/03 15:55:05;;;;;;;6.10;2.58;;;;;;;23.51;29.54;101363.67;1763094;80;20971;-73
2021/06/03 15:57:31;;;;;;;4.37;2.95;;;;;;;23.48;29.63;101354.61;1764387;80;21005;-73
2021/06/03 15:59:57;;;;;;;5.17;2.42;;;;;;;23.45;29.66;101360.00;1765261;80;21128;-73
2021/06/03 16:02:23;;;;;;;6.87;2.90;;;;;;;23.44;29.76;101358.33;1765134;81;21007;-73
2021/06/03 16:04:49;;;;;;;6.30;2.70;;;;;;;23.45;29.79;101357.27;1765199;81;21506;-73
2021/06/03 16:07:15;;;;;;;6.95;4.08;;;;;;;23.43;29.82;101356.69;1765045;81;21471;-73
2021/06/03 16:09:41;;;;;;;7.17;3.62;;;;;;;23.43;29.86;101344.44;1765364;81;21407;-73
2021/06/03 16:12:08;;;;;;;7.15;2.40;;;;;;;23.43;29.93;101351.77;1765211;81;21787;-73
2021/06/03 16:14:34;;;;;;;7.40;2.87;;;;;;;23.46;29.99;101351.30;1765170;80;21030;-73
2021/06/03 16:17:00;;;;;;;11.63;5.12;;;;;;;23.43;30.03;101349.05;1765250;80;20990;-73
2021/06/03 16:19:26;;;;;;;8.48;4.33;;;;;;;23.40;30.12;101354.37;1764857;80;21077;-72
2021/06/03 16:21:52;;;;;;;6.53;3.52;;;;;;;23.35;30.11;101346.92;1765219;80;21065;-73
2021/06/03 16:24:18;;;;;;;5.72;2.60;;;;;;;23.35;30.19;101352.36;1765300;80;21146;-73
2021/06/03 16:26:44;;;;;;;15.35;5.72;;;;;;;23.30;30.25;101353.57;1765346;80;21045;-73
2021/06/03 16:29:10;;;;;;;4.50;2.87;;;;;;;23.31;30.26;101351.16;1764994;81;20971;-73
2021/06/03 16:31:39;;;;;;;3.47;2.42;;;;;;;23.29;30.21;101345.09;1765454;80;21073;-72
2021/06/03 16:34:05;;;;;;;3.62;2.30;;;;;;;23.30;30.25;101349.48;1765150;80;21061;-73
2021/06/03 16:36:31;;;;;;;4.85;2.83;;;;;;;23.26;30.21;101350.17;1764958;80;21113;-73
2021/06/03 16:38:57;;;;;;;3.17;2.65;;;;;;;23.24;30.25;101350.94;1765367;80;21037;-73
2021/06/03 16:41:24;;;;;;;4.60;2.90;;;;;;;23.23;30.34;101343.30;1765130;80;20982;-73
2021/06/03 16:43:56;;;;;;;12.15;7.17;;;;;;;23.17;30.44;101352.39;1765281;81;21541;-73
2021/06/03 16:46:23;;;;;;;8.23;3.05;;;;;;;23.10;30.49;101351.65;1764986;81;21491;-73
2021/06/03 16:48:49;;;;;;;7.03;2.62;;;;;;;23.09;30.53;101345.89;1765307;80;21002;-73
2021/06/03 16:51:15;;;;;;;4.42;2.75;;;;;;;23.07;30.56;101349.91;1765240;81;21026;-73
2021/06/03 16:53:41;;;;;;;3.12;2.35;;;;;;;23.02;30.64;101349.23;1765399;81;20975;-73
2021/06/03 16:56:08;;;;;;;5.03;2.40;;;;;;;22.99;30.64;101348.33;1765285;81;20991;-72
2021/06/03 16:58:34;;;;;;;8.68;2.83;;;;;;;22.98;30.67;101351.27;1765190;81;21033;-73
2021/06/03 17:01:08;;;;;;;6.50;3.05;;;;;;;22.97;30.67;101353.19;1765542;80;21514;-73
2021/06/03 17:03:34;;;;;;;12.43;4.67;;;;;;;22.93;30.68;101355.22;1765353;80;21002;-73
2021/06/03 17:06:01;;;;;;;7.67;3.70;;;;;;;22.92;30.79;101350.30;1765426;81;20982;-73
2021/06/03 17:08:27;;;;;;;4.45;3.08;;;;;;;22.92;30.86;101344.86;1765393;81;20998;-73
2021/06/03 17:10:53;;;;;;;5.25;3.17;;;;;;;22.91;30.88;101349.98;1765518;81;21046;-73
2021/06/03 17:13:19;;;;;;;8.85;3.20;;;;;;;22.90;30.92;101348.34;1765901;79;21726;-73
2021/06/03 17:15:46;;;;;;;7.55;3.67;;;;;;;22.89;31.00;101345.31;1788855;79;21009;-73
2021/06/03 17:18:12;;;;;;;11.97;3.33;;;;;;;22.85;31.08;101350.91;1769756;78;21479;-72
2021/06/03 17:20:40;;;;;;;7.53;2.95;;;;;;;22.77;31.23;101349.84;1785349;78;21077;-72
2021/06/03 17:23:12;;;;;;;15.23;3.43;;;;;;;22.73;31.27;101354.09;1775745;79;21120;-72
2021/06/03 17:25:35;;;;;;;8.67;3.73;;;;;;;22.67;31.36;101340.02;1787996;79;21242;-73
2021/06/03 17:28:02;;;;;;;7.25;3.10;;;;;;;22.64;31.43;101339.09;1786476;79;21586;-72
2021/06/03 17:30:34;;;;;;;4.40;2.62;;;;;;;22.60;31.48;101340.06;1798387;79;21038;-73
2021/06/03 17:33:01;;;;;;;3.90;2.33;;;;;;;22.50;31.51;101338.92;1735572;81;21030;-73
2021/06/03 17:35:29;;;;;;;7.08;2.75;;;;;;;22.40;31.55;101353.88;1741355;81;21511;-73
2021/06/03 17:37:56;;;;;;;7.50;3.42;;;;;;;22.36;31.65;101349.94;1744446;82;21132;-73
2021/06/03 17:40:24;;;;;;;9.53;2.80;;;;;;;22.31;31.75;101358.45;1741503;82;21029;-73
2021/06/03 17:42:50;;;;;;;10.20;3.80;;;;;;;22.24;31.82;101355.80;1744737;82;20999;-72
2021/06/03 17:45:18;;;;;;;7.05;4.03;;;;;;;22.18;31.95;101359.41;1743521;82;21030;-73
2021/06/03 17:47:44;;;;;;;6.08;4.25;;;;;;;22.12;32.12;101363.03;1740937;82;21091;-72
2021/06/03 17:50:11;;;;;;;5.78;2.90;;;;;;;22.06;32.25;101361.73;1740923;82;21511;-73
2021/06/03 17:52:38;;;;;;;5.17;4.03;;;;;;;22.01;32.36;101369.17;1735902;82;21011;-73
2021/06/03 17:55:05;;;;;;;5.12;3.35;;;;;;;21.96;32.51;101373.06;1728085;82;21466;-73
2021/06/03 17:57:31;;;;;;;9.00;3.30;;;;;;;21.90;32.66;101368.53;1754586;80;20971;-72
2021/06/03 17:59:57;;;;;;;5.08;2.40;;;;;;;21.83;32.78;101368.55;1753599;81;21071;-73
2021/06/03 18:02:23;;;;;;;3.95;2.35;;;;;;;21.78;32.91;101379.22;1761999;80;21130;-72
2021/06/03 18:04:50;;;;;;;5.28;2.67;;;;;;;21.73;33.01;101379.59;1767563;81;21539;-72
2021/06/03 18:07:16;;;;;;;6.30;4.78;;;;;;;21.67;33.18;101375.87;1734598;81;21072;-73
2021/06/03 18:09:42;;;;;;;10.72;5.37;;;;;;;21.60;33.35;101375.61;1753914;81;21023;-73
2021/06/03 18:12:09;;;;;;;6.97;5.97;;;;;;;21.55;33.50;101372.18;1751580;80;21027;-73
2021/06/03 18:14:35;;;;;;;12.65;9.48;;;;;;;21.48;33.69;101373.27;1727825;82;21196;-73
2021/06/03 18:17:03;;;;;;;8.15;7.28;;;;;;;21.40;33.84;101373.83;1755881;81;21525;-72
2021/06/03 18:19:29;;;;;;;12.13;7.55;;;;;;;21.35;33.98;101372.83;1738501;82;21062;-73
2021/06/03 18:21:55;;;;;;;6.58;4.87;;;;;;;21.28;34.12;101372.86;1752496;81;20988;-73
2021/06/03 18:24:21;;;;;;;16.82;14.68;;;;;;;21.20;34.23;101369.03;1727058;82;21574;-73
2021/06/03 18:26:47;;;;;;;21.17;16.05;;;;;;;21.12;34.39;101373.33;1732583;82;21975;-72
2021/06/03 18:29:13;;;;;;;44.60;37.93;;;;;;;21.05;34.52;101369.78;1746112;80;21010;-73
2021/06/03 18:31:40;;;;;;;32.83;26.90;;;;;;;20.97;34.68;101370.02;1728091;82;21016;-73
2021/06/03 18:34:06;;;;;;;47.73;40.70;;;;;;;20.89;34.85;101368.92;1732722;81;21092;-73
2021/06/03 18:36:33;;;;;;;36.68;28.25;;;;;;;20.79;35.06;101375.31;1726529;81;21059;-73
2021/06/03 18:39:00;;;;;;;22.58;16.97;;;;;;;20.67;35.33;101374.29;1730553;81;21487;-72
2021/06/03 18:41:26;;;;;;;13.62;9.03;;;;;;;20.50;35.64;101374.43;1728362;82;21063;-72
2021/06/03 18:43:52;;;;;;;15.15;11.50;;;;;;;20.37;35.96;101372.03;1741208;81;21014;-72
2021/06/03 18:46:18;;;;;;;13.62;7.83;;;;;;;20.26;36.26;101375.89;1746094;81;21068;-73
2021/06/03 18:48:45;;;;;;;15.93;9.33;;;;;;;20.12;36.63;101375.06;1722925;82;21585;-73
2021/06/03 18:51:13;;;;;;;19.57;12.20;;;;;;;20.00;36.97;101378.59;1726107;82;21014;-72
2021/06/03 18:53:39;;;;;;;12.35;8.23;;;;;;;19.85;37.39;101382.84;1724231;82;21155;-72
2021/06/03 18:56:05;;;;;;;18.57;11.12;;;;;;;19.66;37.84;101385.01;1757435;81;21491;-72
2021/06/03 18:58:31;;;;;;;32.25;11.57;;;;;;;19.48;38.30;101387.45;1740411;81;21039;-72
2021/06/03 19:00:58;;;;;;;14.47;9.48;;;;;;;19.26;38.80;101387.56;1726090;82;21018;-72
2021/06/03 19:03:24;;;;;;;25.05;9.20;;;;;;;19.08;39.36;101386.44;1703904;81;21160;-72
2021/06/03 19:05:51;;;;;;;28.95;9.03;;;;;;;18.85;39.98;101382.70;1715475;81;21049;-72
2021/06/03 19:08:17;;;;;;;34.15;8.68;;;;;;;18.65;40.66;101395.23;1739331;81;21474;-72
2021/06/03 19:10:49;;;;;;;33.67;8.83;;;;;;;18.44;41.32;101388.84;1731367;82;21074;-72
2021/06/03 19:13:15;;;;;;;22.07;8.65;;;;;;;18.25;41.95;101394.95;1692315;83;21021;-72
2021/06/03 19:15:41;;;;;;;13.62;7.12;;;;;;;18.06;42.51;101390.20;1708375;81;21740;-72
2021/06/03 19:18:08;;;;;;;20.82;8.15;;;;;;;17.94;42.90;101391.77;1704443;81;21049;-72
2021/06/03 19:20:34;;;;;;;23.00;8.30;;;;;;;17.88;43.10;101398.76;1702292;81;21056;-71
2021/06/03 19:23:01;;;;;;;22.00;8.35;;;;;;;17.78;43.32;101404.16;1707388;81;21068;-71
2021/06/03 19:25:27;;;;;;;24.10;10.32;;;;;;;17.67;43.58;101410.05;1724709;81;21086;-71
2021/06/03 19:27:54;;;;;;;22.65;10.88;;;;;;;17.54;43.95;101414.77;1710128;81;21200;-72
2021/06/03 19:30:20;;;;;;;20.72;10.70;;;;;;;17.44;44.22;101408.34;1697343;81;21035;-72
2021/06/03 19:32:46;;;;;;;27.45;10.75;;;;;;;17.38;44.45;101413.13;1710678;81;21518;-72
2021/06/03 19:35:22;;;;;;;18.30;9.95;;;;;;;17.26;44.76;101413.81;1708015;81;21507;-73
2021/06/03 19:37:49;;;;;;;18.15;9.90;;;;;;;17.14;45.09;101415.30;1735848;82;21026;-73
2021/06/03 19:40:15;;;;;;;24.50;11.18;;;;;;;16.98;45.43;101417.70;1735861;81;21179;-73
2021/06/03 19:42:42;;;;;;;21.20;9.30;;;;;;;16.87;45.79;101416.82;1709871;81;21017;-73
2021/06/03 19:45:09;;;;;;;32.42;10.13;;;;;;;16.77;46.18;101410.88;1701217;81;22483;-73
2021/06/03 19:47:35;;;;;;;38.70;11.18;;;;;;;16.65;46.57;101415.03;1713174;83;21062;-73
2021/06/03 19:50:03;;;;;;;29.40;10.72;;;;;;;16.53;46.98;101413.80;1710825;83;21085;-73
2021/06/03 19:52:29;;;;;;;26.87;10.93;;;;;;;16.38;47.41;101411.92;1711338;83;21139;-73
2021/06/03 19:54:55;;;;;;;27.27;10.23;;;;;;;16.26;47.84;101418.75;1695907;83;21051;-72
2021/06/03 19:57:22;;;;;;;21.75;10.75;;;;;;;16.16;48.24;101416.82;1686209;81;21042;-73
2021/06/03 19:59:49;;;;;;;23.98;11.97;;;;;;;16.09;48.60;101411.84;1728578;82;21059;-73
2021/06/03 20:02:15;;;;;;;26.73;12.82;;;;;;;16.02;48.96;101414.92;1740093;82;21413;-73
2021/06/03 20:04:41;;;;;;;25.72;13.95;;;;;;;15.95;49.27;101420.70;1693007;84;21044;-73
2021/06/03 20:07:07;;;;;;;24.00;13.48;;;;;;;15.87;49.53;101418.05;1724718;83;21058;-73